Time;durP1;ratioP1;P1;durP2;ratioP2;P2;SDS_P1;SDS_P2;PMS_P1;PMS_P2;Temp;Humidity;BMP_temperature;BMP_pressure;BME280_temperature;BME280_humidity;BME280_pressure;Samples;Min_cycle;Max_cycle;Signal;HPM_P1;HPM_P2
2022/04/05 00:00:01;;;;;;;13.30;12.00;;;5.10;63.30;;;3.65;69.05;97259.44;5042955;28;20527;-69
2022/04/05 00:02:29;;;;;;;12.93;11.70;;;5.10;63.50;;;3.64;68.51;97245.22;5036793;28;20562;-69
2022/04/05 00:04:56;;;;;;;14.20;11.93;;;5.10;63.50;;;3.56;68.65;97231.97;5043756;28;20484;-71
2022/04/05 00:07:24;;;;;;;12.63;11.30;;;5.10;63.40;;;3.63;68.53;97235.56;5044129;28;20556;-68
2022/04/05 00:09:51;;;;;;;12.80;11.60;;;5.10;63.50;;;3.56;68.87;97231.97;5047942;28;21372;-70
2022/04/05 00:12:20;;;;;;;12.77;11.33;;;5.10;63.40;;;3.61;68.47;97216.22;5039358;28;20549;-70
2022/04/05 00:14:47;;;;;;;12.73;11.43;;;5.10;63.50;;;3.61;68.50;97224.25;5056866;28;20530;-70
2022/04/05 00:17:14;;;;;;;13.50;11.63;;;5.10;63.50;;;3.60;68.72;97219.91;5037686;28;21040;-70
2022/04/05 00:19:43;;;;;;;12.60;11.30;;;5.10;63.40;;;3.67;67.91;97222.66;5038047;28;20472;-70
2022/04/05 00:22:10;;;;;;;12.13;10.90;;;5.10;63.30;;;3.66;68.12;97221.81;5037956;28;20565;-68
2022/04/05 00:24:37;;;;;;;13.90;11.83;;;5.10;63.50;;;3.63;68.61;97211.50;5034678;28;20536;-69
2022/04/05 00:27:04;;;;;;;13.00;11.47;;;5.10;63.50;;;3.69;68.42;97205.41;5041335;28;20458;-69
2022/04/05 00:29:31;;;;;;;12.97;11.77;;;5.20;63.30;;;3.52;68.57;97196.00;5037610;28;20543;-69
2022/04/05 00:31:58;;;;;;;13.40;12.00;;;5.10;63.40;;;3.61;68.01;97202.88;5040538;28;20498;-69
2022/04/05 00:34:25;;;;;;;13.40;12.10;;;5.10;63.40;;;3.59;68.28;97194.22;5037580;28;20558;-68
2022/04/05 00:36:54;;;;;;;13.57;11.27;;;5.10;63.40;;;3.45;67.86;97171.06;5045245;28;20452;-69
2022/04/05 00:39:22;;;;;;;12.47;11.37;;;5.10;63.20;;;3.60;67.90;97185.19;5042709;28;20766;-69
2022/04/05 00:41:49;;;;;;;12.23;11.03;;;5.10;63.10;;;3.73;67.83;97187.16;5036890;28;20458;-70
2022/04/05 00:44:16;;;;;;;12.03;10.63;;;5.20;63.10;;;3.64;67.39;97167.75;5048122;28;20662;-70
2022/04/05 00:46:43;;;;;;;11.20;10.10;;;5.20;62.80;;;3.72;67.23;97177.47;5039839;28;20923;-69
2022/04/05 00:49:14;;;;;;;11.17;10.07;;;5.20;62.70;;;3.62;67.32;97167.13;5054186;28;20941;-69
2022/04/05 00:51:41;;;;;;;14.20;10.90;;;5.20;62.60;;;3.67;67.63;97172.69;5041002;28;20490;-69
2022/04/05 00:54:11;;;;;;;10.90;9.20;;;5.20;62.70;;;3.69;66.77;97168.00;5051570;28;20498;-70
2022/04/05 00:56:39;;;;;;;11.37;9.70;;;5.20;62.60;;;3.66;67.45;97173.72;5039513;28;21020;-69
2022/04/05 00:59:08;;;;;;;11.33;10.10;;;5.20;62.60;;;3.64;67.37;97165.09;5036769;28;20584;-70
2022/04/05 01:01:35;;;;;;;10.93;9.93;;;5.10;62.50;;;3.69;67.39;97161.84;5034979;28;20455;-69
2022/04/05 01:04:04;;;;;;;11.07;9.83;;;5.20;62.60;;;3.74;66.76;97156.72;5037669;28;20460;-70
2022/04/05 01:06:36;;;;;;;11.60;9.90;;;5.20;62.60;;;3.87;66.65;97158.72;5039310;28;20458;-69
2022/04/05 01:09:03;;;;;;;11.00;9.90;;;5.20;62.30;;;3.89;66.09;97167.34;5033086;28;20556;-69
2022/04/05 01:11:33;;;;;;;12.00;10.80;;;5.30;62.20;;;3.88;66.08;97149.66;5041071;28;20491;-69
2022/04/05 01:14:00;;;;;;;11.70;10.60;;;5.30;62.10;;;3.83;65.99;97144.06;5036405;28;20453;-70
2022/04/05 01:16:28;;;;;;;11.03;10.00;;;5.30;61.90;;;3.85;66.61;97152.69;5035968;28;20780;-69
2022/04/05 01:18:55;;;;;;;11.83;10.60;;;5.30;62.10;;;3.87;66.47;97150.69;5038595;28;20492;-70
2022/04/05 01:21:22;;;;;;;11.77;10.57;;;5.30;62.10;;;3.92;66.34;97150.09;5035073;28;20463;-70
2022/04/05 01:26:56;;;;;;;11.60;10.50;;;5.30;62.10;;;3.93;65.28;97139.22;5061456;27;20622;-70
2022/04/05 01:29:26;;;;;;;11.27;10.10;;;5.40;61.80;;;3.86;65.85;97132.97;5056892;28;20504;-69
2022/04/05 01:31:58;;;;;;;9.63;8.63;;;5.40;61.70;;;3.92;65.63;97140.22;5061570;28;20452;-69
2022/04/05 01:34:28;;;;;;;11.67;10.50;;;5.40;61.50;;;3.88;66.02;97138.97;5053373;28;20480;-70
2022/04/05 01:36:58;;;;;;;9.67;8.60;;;5.40;61.60;;;3.80;65.38;97120.41;5055632;28;20560;-70
2022/04/05 01:39:27;;;;;;;10.30;9.30;;;5.40;61.60;;;3.94;65.79;97143.53;5061721;28;20492;-70
2022/04/05 01:41:58;;;;;;;10.47;9.37;;;5.40;61.60;;;3.92;65.83;97129.53;5058284;28;20541;-69
2022/04/05 01:44:26;;;;;;;12.50;10.57;;;5.40;61.70;;;3.98;65.46;97127.94;5055589;28;20455;-70
2022/04/05 01:46:54;;;;;;;11.43;10.23;;;5.40;61.60;;;3.92;65.32;97113.50;5056068;28;20452;-69
2022/04/05 01:49:22;;;;;;;11.33;9.90;;;5.40;61.60;;;3.91;65.75;97127.88;5061333;28;20973;-70
2022/04/05 01:51:50;;;;;;;11.27;10.00;;;5.40;61.70;;;4.04;65.54;97121.81;5058380;28;20475;-70
2022/04/05 01:54:18;;;;;;;10.50;9.43;;;5.40;61.50;;;3.92;65.57;97121.53;5059864;28;20452;-70
2022/04/05 01:56:48;;;;;;;11.03;9.83;;;5.40;61.60;;;3.88;66.44;97116.75;5059329;28;20508;-70
2022/04/05 01:59:19;;;;;;;11.37;9.40;;;5.30;61.80;;;3.83;66.43;97114.66;5059109;28;20592;-70
2022/04/05 02:01:48;;;;;;;10.37;9.40;;;5.30;62.00;;;3.81;66.79;97111.38;5066474;28;20459;-68
2022/04/05 02:04:15;;;;;;;10.67;9.67;;;5.30;62.40;;;3.85;67.88;97117.97;5080149;28;20538;-69
2022/04/05 02:06:44;;;;;;;14.23;11.33;;;5.30;63.00;;;3.74;67.79;97095.28;5079871;28;20489;-69
2022/04/05 02:09:13;;;;;;;11.00;9.90;;;5.30;63.20;;;3.74;68.08;97105.16;5056563;28;20796;-69
2022/04/05 02:11:41;;;;;;;10.87;9.30;;;5.30;63.30;;;3.53;68.07;97056.06;5072167;28;20633;-70
2022/04/05 02:14:08;;;;;;;10.43;9.33;;;5.20;63.70;;;3.81;68.24;97096.16;5059156;28;20448;-70
2022/04/05 02:16:37;;;;;;;11.53;10.33;;;5.30;63.80;;;3.88;68.04;97104.22;5060331;28;20549;-69
2022/04/05 02:19:04;;;;;;;10.33;9.23;;;5.30;63.90;;;3.71;68.38;97073.47;5060805;28;20497;-70
2022/04/05 02:21:31;;;;;;;10.70;9.60;;;5.30;64.30;;;3.77;69.20;97096.75;5050434;28;20546;-69
2022/04/05 02:23:58;;;;;;;10.77;9.67;;;5.30;64.60;;;3.75;69.13;97088.09;5061658;28;20484;-69
2022/04/05 02:26:25;;;;;;;10.80;9.73;;;5.20;64.60;;;3.69;69.34;97085.16;5052674;28;20569;-70
2022/04/05 02:28:52;;;;;;;8.97;8.10;;;5.20;64.70;;;3.76;69.28;97084.41;5057127;28;20517;-69
2022/04/05 02:31:19;;;;;;;12.67;10.87;;;5.30;64.60;;;3.60;69.36;97078.34;5057329;28;20460;-70
2022/04/05 02:33:48;;;;;;;11.20;10.10;;;5.20;64.80;;;3.74;69.58;97089.13;5055634;28;20892;-71
2022/04/05 02:36:15;;;;;;;9.90;8.90;;;5.20;65.10;;;3.78;69.63;97087.72;5056046;28;20459;-70
2022/04/05 02:38:42;;;;;;;9.53;8.60;;;5.20;65.00;;;3.84;69.66;97092.25;5042500;28;20489;-69
2022/04/05 02:41:09;;;;;;;9.93;9.03;;;5.20;65.50;;;3.68;69.63;97086.19;5047947;28;20554;-69
2022/04/05 02:43:37;;;;;;;10.30;9.00;;;5.20;65.40;;;3.67;70.31;97087.22;5045513;28;20724;-70
2022/04/05 02:46:05;;;;;;;9.93;8.93;;;5.20;65.70;;;3.68;70.85;97078.19;5045894;28;20496;-69
2022/04/05 02:48:32;;;;;;;13.03;10.00;;;5.20;66.10;;;3.76;71.04;97079.88;5045699;28;20468;-70
2022/04/05 02:51:00;;;;;;;13.40;9.27;;;5.20;66.40;;;3.72;70.48;97077.81;5040441;28;20462;-69
2022/04/05 02:53:27;;;;;;;11.60;10.10;;;5.20;66.60;;;3.65;72.00;97078.56;5049910;28;20506;-69
2022/04/05 02:55:54;;;;;;;11.73;10.03;;;5.10;67.30;;;3.54;72.38;97079.94;5037214;28;21059;-69
2022/04/05 02:58:21;;;;;;;11.13;9.60;;;5.10;67.70;;;3.49;72.47;97073.50;5049179;28;20467;-68
2022/04/05 03:00:48;;;;;;;10.93;9.33;;;5.00;67.90;;;3.59;73.19;97074.00;5043143;28;20452;-69
2022/04/05 03:03:15;;;;;;;11.40;10.10;;;5.10;69.00;;;3.56;73.34;97082.38;5047917;28;20540;-69
2022/04/05 03:05:42;;;;;;;9.97;9.03;;;5.10;69.10;;;3.61;73.65;97079.16;5052150;28;20487;-69
2022/04/05 03:08:10;;;;;;;10.60;8.70;;;5.00;69.60;;;3.69;73.57;97079.00;5042364;28;20486;-68
2022/04/05 03:10:37;;;;;;;11.67;9.40;;;5.10;70.10;;;3.58;73.67;97075.03;5045295;28;20468;-70
2022/04/05 03:13:05;;;;;;;11.27;9.10;;;5.10;70.30;;;3.58;74.10;97069.69;5046434;28;20446;-69
2022/04/05 03:15:31;;;;;;;11.13;10.03;;;5.00;71.00;;;3.54;74.85;97068.41;5041321;28;20474;-69
2022/04/05 03:17:59;;;;;;;11.23;10.07;;;5.00;71.60;;;3.53;75.11;97072.94;5041727;28;20556;-70
2022/04/05 03:20:26;;;;;;;13.17;9.80;;;5.00;72.00;;;3.45;75.60;97074.94;5038182;28;20470;-69
2022/04/05 03:22:55;;;;;;;11.73;10.53;;;5.00;72.80;;;3.37;76.10;97075.88;5044179;28;20466;-70
2022/04/05 03:25:23;;;;;;;11.50;10.40;;;4.90;73.20;;;3.40;77.05;97081.66;5037608;28;20469;-72
2022/04/05 03:27:50;;;;;;;11.07;9.93;;;4.90;74.60;;;3.39;77.48;97076.53;5040315;28;20469;-70
2022/04/05 03:30:21;;;;;;;12.60;9.80;;;4.90;75.30;;;3.40;76.89;97084.31;5039152;28;20455;-69
2022/04/05 03:32:49;;;;;;;11.53;10.20;;;4.90;75.10;;;3.38;77.20;97075.69;5047557;28;20490;-69
2022/04/05 03:35:16;;;;;;;11.20;10.00;;;4.90;75.30;;;3.47;76.27;97070.22;5048139;28;20536;-70
2022/04/05 03:37:43;;;;;;;10.47;9.37;;;4.90;75.20;;;3.43;76.65;97072.44;5046047;28;20458;-71
2022/04/05 03:40:13;;;;;;;14.60;10.27;;;4.90;75.40;;;3.32;77.84;97065.78;5048697;28;21033;-71
2022/04/05 03:42:42;;;;;;;13.67;10.67;;;4.90;76.50;;;3.25;78.00;97062.22;5048403;28;20551;-71
2022/04/05 03:45:10;;;;;;;11.50;10.40;;;4.80;76.60;;;3.19;79.07;97074.50;5061746;28;20945;-70
2022/04/05 03:47:37;;;;;;;10.90;9.90;;;4.70;77.30;;;3.34;78.05;97074.41;5057095;28;20466;-71
2022/04/05 03:50:05;;;;;;;10.90;9.73;;;4.80;77.50;;;3.36;78.55;97067.03;5030806;28;20490;-71
2022/04/05 03:52:32;;;;;;;14.40;10.30;;;4.80;77.90;;;3.32;78.60;97067.63;5038501;28;20454;-70
2022/04/05 03:54:59;;;;;;;12.30;11.00;;;4.80;78.30;;;3.16;79.14;97055.38;5057827;28;20484;-71
2022/04/05 03:57:26;;;;;;;15.17;11.10;;;4.80;78.70;;;3.30;79.61;97057.16;5038849;28;21005;-70
2022/04/05 03:59:54;;;;;;;12.53;11.20;;;4.80;79.00;;;3.28;79.55;97080.53;5042881;28;20514;-70
2022/04/05 04:02:21;;;;;;;9.87;8.73;;;4.80;79.30;;;3.26;80.07;97074.53;5045976;28;20490;-71
2022/04/05 04:04:48;;;;;;;13.00;11.70;;;4.80;79.70;;;3.25;79.98;97055.03;5046396;28;20463;-71
2022/04/05 04:07:15;;;;;;;11.97;10.10;;;4.70;79.30;;;3.25;80.58;97073.72;5048064;28;20483;-72
2022/04/05 04:09:42;;;;;;;12.00;9.73;;;4.70;80.10;;;3.24;80.36;97073.91;5058211;28;20462;-71
2022/04/05 04:12:10;;;;;;;14.07;10.43;;;4.70;80.30;;;3.23;80.89;97080.28;5053047;28;20547;-71
2022/04/05 04:14:37;;;;;;;12.90;10.73;;;4.80;81.20;;;3.24;80.77;97076.59;5036493;28;20541;-70
2022/04/05 04:17:06;;;;;;;11.17;9.70;;;4.80;81.50;;;3.22;81.30;97066.13;5041591;28;20463;-71
2022/04/05 04:19:34;;;;;;;12.23;10.83;;;4.70;82.40;;;3.23;81.73;97065.09;5053302;28;20538;-71
2022/04/05 04:22:01;;;;;;;13.43;10.83;;;4.70;82.80;;;3.18;81.95;97075.50;5058813;28;20495;-71
2022/04/05 04:24:28;;;;;;;12.67;10.60;;;4.70;83.00;;;3.11;82.65;97064.78;5039363;28;21031;-72
2022/04/05 04:26:55;;;;;;;12.40;10.90;;;4.60;84.00;;;3.22;82.21;97075.94;5048995;28;20487;-70
2022/04/05 04:29:22;;;;;;;13.47;11.43;;;4.70;84.20;;;3.10;83.17;97063.09;5041497;28;20467;-71
2022/04/05 04:31:49;;;;;;;11.47;10.27;;;4.60;84.60;;;3.08;82.62;97059.81;5040669;28;20454;-71
2022/04/05 04:34:18;;;;;;;12.03;9.63;;;4.60;84.60;;;3.07;83.38;97066.16;5045829;28;20984;-71
2022/04/05 04:36:46;;;;;;;12.20;10.90;;;4.60;85.70;;;3.01;83.23;97074.94;5037881;28;20465;-71
2022/04/05 04:39:16;;;;;;;15.20;12.17;;;4.60;86.10;;;3.07;84.05;97079.50;5040527;28;20457;-71
2022/04/05 04:41:44;;;;;;;12.27;10.60;;;4.60;86.90;;;3.10;83.88;97076.47;5044215;28;20453;-71
2022/04/05 04:44:11;;;;;;;11.73;10.40;;;4.60;86.40;;;3.17;83.25;97092.53;5043998;28;20539;-71
2022/04/05 04:46:38;;;;;;;15.10;11.73;;;4.60;86.30;;;3.08;83.89;97088.34;5050455;28;20890;-71
2022/04/05 04:49:05;;;;;;;13.80;12.40;;;4.60;86.50;;;3.16;83.88;97084.75;5052382;28;20548;-72
2022/04/05 04:51:34;;;;;;;12.90;11.60;;;4.60;86.70;;;3.13;84.62;97088.59;5044854;28;20538;-72
2022/04/05 04:54:01;;;;;;;14.83;11.87;;;4.60;88.30;;;3.17;83.68;97089.06;5041546;28;20444;-72
2022/04/05 04:56:28;;;;;;;14.37;11.13;;;4.70;86.90;;;3.18;84.04;97080.03;5040966;28;20841;-72
2022/04/05 04:58:55;;;;;;;13.57;12.27;;;4.60;86.50;;;3.10;84.70;97068.44;5043033;28;20906;-71
2022/04/05 05:01:22;;;;;;;13.30;11.03;;;4.60;88.30;;;2.73;83.97;97014.31;5036072;28;20906;-71
2022/04/05 05:03:49;;;;;;;13.30;11.50;;;4.60;87.40;;;3.15;84.28;97075.06;5039722;28;20466;-71
2022/04/05 05:06:16;;;;;;;12.53;10.83;;;4.60;87.80;;;3.17;84.81;97078.38;5055128;28;20469;-70
2022/04/05 05:08:45;;;;;;;13.70;11.33;;;4.60;88.50;;;3.17;85.02;97078.38;5040805;28;21032;-70
2022/04/05 05:11:12;;;;;;;10.60;9.50;;;4.60;88.80;;;3.22;84.88;97065.28;5043848;28;20573;-72
2022/04/05 05:13:39;;;;;;;13.53;12.13;;;4.70;88.50;;;3.11;84.97;97059.44;5038854;28;20492;-71
2022/04/05 05:16:08;;;;;;;11.07;9.87;;;4.70;88.20;;;3.29;84.39;97076.84;5042743;28;20961;-72
2022/04/05 05:18:35;;;;;;;12.30;11.03;;;4.70;88.20;;;3.20;84.14;97083.34;5032889;28;20545;-70
2022/04/05 05:21:02;;;;;;;13.53;11.10;;;4.70;87.70;;;3.33;83.76;97085.28;5041623;28;20567;-74
2022/04/05 05:23:29;;;;;;;12.63;11.37;;;4.80;87.00;;;3.28;84.06;97080.53;5043354;28;20462;-72
2022/04/05 05:25:58;;;;;;;13.90;11.70;;;4.80;87.00;;;3.08;84.48;97053.66;5038058;28;20581;-70
2022/04/05 05:28:24;;;;;;;12.13;10.83;;;4.80;87.30;;;3.31;83.79;97093.50;5046945;28;20979;-71
2022/04/05 05:30:51;;;;;;;14.80;12.07;;;4.80;87.60;;;3.31;84.86;97082.81;5052133;28;21055;-70
2022/04/05 05:33:18;;;;;;;11.53;10.33;;;4.80;88.10;;;3.40;83.96;97083.50;5033328;28;20458;-69
2022/04/05 05:35:45;;;;;;;13.50;10.90;;;4.80;87.60;;;3.56;82.48;97106.44;5040104;28;20471;-71
2022/04/05 05:38:12;;;;;;;11.40;10.13;;;5.00;85.50;;;3.58;82.11;97122.28;5045365;28;20475;-69
2022/04/05 05:40:39;;;;;;;12.27;9.40;;;5.00;83.90;;;3.63;82.35;97114.50;5036915;28;20546;-73
2022/04/05 05:43:09;;;;;;;11.00;9.80;;;5.10;84.20;;;3.63;82.25;97110.00;5043931;28;20462;-71
2022/04/05 05:45:37;;;;;;;12.13;10.73;;;5.10;83.90;;;3.54;82.52;97113.81;5034812;28;20536;-71
2022/04/05 05:48:05;;;;;;;9.57;7.40;;;5.00;84.30;;;3.60;80.74;97107.72;5045927;28;20477;-74
2022/04/05 05:50:33;;;;;;;9.53;8.53;;;5.10;82.80;;;3.59;81.33;97119.44;5036179;28;20477;-70
2022/04/05 05:53:00;;;;;;;12.43;11.13;;;5.10;83.30;;;3.55;81.54;97120.81;5043975;28;20463;-69
2022/04/05 05:55:28;;;;;;;12.67;11.40;;;5.10;83.50;;;3.70;82.28;97120.75;5036597;28;20488;-69
2022/04/05 05:57:55;;;;;;;12.40;10.87;;;5.10;84.30;;;3.76;80.86;97124.50;5054503;28;20474;-70
2022/04/05 06:00:23;;;;;;;11.60;10.40;;;5.20;83.10;;;3.72;80.88;97108.00;5038819;28;20591;-68
2022/04/05 06:02:54;;;;;;;11.93;10.73;;;5.20;83.00;;;3.71;81.29;97118.88;5045158;28;20457;-70
2022/04/05 06:05:21;;;;;;;11.40;10.17;;;5.20;82.80;;;3.67;81.46;97116.59;5045181;28;20452;-70
2022/04/05 06:07:49;;;;;;;13.77;9.90;;;5.20;83.50;;;3.90;80.80;97120.91;5049663;28;20574;-69
2022/04/05 06:10:16;;;;;;;12.20;11.00;;;5.30;82.30;;;3.72;80.36;97117.88;5036000;28;20477;-73
2022/04/05 06:12:46;;;;;;;12.00;10.70;;;5.20;82.10;;;3.81;80.67;97128.22;5057513;28;20451;-69
2022/04/05 06:15:15;;;;;;;10.90;9.83;;;5.20;82.20;;;3.88;79.76;97125.63;5056761;28;20465;-69
2022/04/05 06:17:46;;;;;;;9.80;8.80;;;5.30;81.80;;;3.83;80.42;97130.69;5042195;28;20615;-68
2022/04/05 06:20:16;;;;;;;9.47;8.10;;;5.30;81.60;;;3.86;79.39;97135.66;5050030;28;20484;-68
2022/04/05 06:22:45;;;;;;;10.30;9.30;;;5.30;81.20;;;3.79;79.96;97132.94;5042990;28;20515;-75
2022/04/05 06:25:14;;;;;;;10.30;9.20;;;5.30;81.70;;;3.94;80.26;97142.69;5044484;28;20467;-73
2022/04/05 06:27:41;;;;;;;9.30;7.90;;;5.40;81.80;;;3.85;79.78;97142.00;5045860;28;20585;-71
2022/04/05 06:30:10;;;;;;;11.33;9.20;;;5.30;81.20;;;3.77;80.23;97145.66;5041964;28;20461;-72
2022/04/05 06:32:37;;;;;;;11.20;9.73;;;5.30;81.20;;;3.59;80.50;97114.09;5042096;28;20461;-72
2022/04/05 06:35:09;;;;;;;10.53;9.10;;;5.30;81.70;;;3.85;80.26;97162.59;5044331;28;20448;-70
2022/04/05 06:37:37;;;;;;;11.10;10.00;;;5.30;82.10;;;3.82;80.67;97155.75;5041870;28;20468;-71
2022/04/05 06:40:07;;;;;;;11.23;9.97;;;5.30;82.30;;;3.85;80.73;97134.00;5048969;28;20442;-71
2022/04/05 06:42:35;;;;;;;11.37;9.67;;;5.30;81.90;;;3.87;80.43;97134.66;5061873;28;20457;-71
2022/04/05 06:45:02;;;;;;;10.03;9.00;;;5.30;81.70;;;3.90;80.41;97149.44;5042810;28;20482;-71
2022/04/05 06:47:29;;;;;;;10.47;9.37;;;5.30;81.60;;;4.06;80.17;97159.03;5038594;28;20487;-72
2022/04/05 06:49:56;;;;;;;10.53;8.87;;;5.40;81.80;;;3.99;79.67;97160.81;5047030;28;20461;-71
2022/04/05 06:52:24;;;;;;;9.97;8.83;;;5.40;81.20;;;3.97;80.25;97163.72;5049653;28;20450;-72
2022/04/05 06:54:51;;;;;;;9.43;7.23;;;5.40;81.40;;;3.95;79.69;97163.88;5042490;28;20540;-72
2022/04/05 06:57:19;;;;;;;9.17;8.07;;;5.40;81.30;;;3.88;80.77;97160.34;5023747;28;20493;-72
2022/04/05 06:59:46;;;;;;;9.93;8.93;;;5.30;82.10;;;3.92;80.95;97158.94;5039832;28;20462;-72
2022/04/05 07:02:13;;;;;;;9.97;8.80;;;5.40;82.30;;;3.87;80.92;97157.88;5044718;28;20528;-71
2022/04/05 07:04:40;;;;;;;10.43;9.40;;;5.40;83.00;;;3.76;82.16;97167.25;5055355;28;20525;-72
2022/04/05 07:07:08;;;;;;;14.57;8.00;;;5.30;84.10;;;3.82;81.99;97161.13;5048757;28;20471;-71
2022/04/05 07:09:37;;;;;;;9.80;8.80;;;5.30;84.60;;;3.82;83.52;97161.13;5061473;28;20460;-72
2022/04/05 07:12:07;;;;;;;10.03;9.03;;;5.30;86.30;;;3.92;83.83;97166.97;5043149;28;20939;-72
2022/04/05 07:14:34;;;;;;;12.57;9.47;;;5.30;86.90;;;3.99;83.76;97161.66;5038217;28;20514;-73
2022/04/05 07:17:01;;;;;;;10.63;9.57;;;5.40;87.50;;;3.88;84.80;97160.34;5044499;28;20458;-72
2022/04/05 07:19:28;;;;;;;10.87;8.40;;;5.40;88.60;;;3.85;84.05;97160.72;5044325;28;20455;-73
2022/04/05 07:21:56;;;;;;;9.13;8.23;;;5.30;88.50;;;3.87;84.66;97166.72;5045785;28;20947;-71
2022/04/05 07:24:23;;;;;;;11.60;10.40;;;5.30;89.30;;;3.88;85.78;97159.50;5045423;28;21019;-71
2022/04/05 07:26:52;;;;;;;10.93;9.43;;;5.30;90.20;;;3.96;85.42;97162.88;5041907;28;21032;-71
2022/04/05 07:29:19;;;;;;;10.17;8.90;;;5.40;90.10;;;3.92;85.84;97172.31;5039108;28;21015;-71
2022/04/05 07:31:46;;;;;;;10.27;9.13;;;5.30;90.60;;;3.85;85.67;97175.94;5047427;28;20481;-71
2022/04/05 07:34:14;;;;;;;9.03;8.23;;;5.30;89.60;;;3.82;85.76;97171.81;5045779;28;21016;-71
2022/04/05 07:36:41;;;;;;;8.90;8.00;;;5.30;89.90;;;3.83;86.25;97176.13;5046775;28;20561;-72
2022/04/05 07:39:08;;;;;;;11.27;9.90;;;5.30;90.70;;;3.85;86.50;97168.75;5045756;28;20548;-73
2022/04/05 07:41:35;;;;;;;11.60;8.80;;;5.30;90.80;;;3.75;86.52;97169.06;5035155;28;20466;-72
2022/04/05 07:44:04;;;;;;;10.43;9.33;;;5.30;90.70;;;3.86;86.65;97177.59;5031320;28;20559;-70
2022/04/05 07:46:31;;;;;;;13.03;10.07;;;5.30;91.00;;;3.94;87.02;97186.31;5055109;28;20545;-71
2022/04/05 07:48:59;;;;;;;10.03;8.90;;;5.30;91.30;;;3.93;86.36;97176.63;5035546;28;20550;-71
2022/04/05 07:51:27;;;;;;;10.37;9.37;;;5.40;91.20;;;3.83;86.96;97157.41;5033514;28;22228;-73
2022/04/05 07:53:54;;;;;;;12.07;9.57;;;5.40;91.10;;;4.03;87.13;97172.81;5045317;28;22888;-72
2022/04/05 07:56:21;;;;;;;10.43;9.40;;;5.40;91.50;;;4.03;86.22;97172.81;5041398;28;20474;-72
2022/04/05 07:58:48;;;;;;;9.80;8.90;;;5.40;91.20;;;4.06;86.23;97173.22;5037685;28;20493;-72
2022/04/05 08:01:16;;;;;;;11.23;9.13;;;5.50;90.40;;;4.00;85.96;97175.84;5037669;28;20518;-72
2022/04/05 08:03:43;;;;;;;9.87;8.87;;;5.50;90.70;;;4.08;86.00;97186.41;5041813;28;20889;-71
2022/04/05 08:06:10;;;;;;;10.10;8.60;;;5.50;90.70;;;4.16;86.71;97178.22;5050568;28;20485;-71
2022/04/05 08:08:37;;;;;;;11.07;9.77;;;5.50;91.20;;;4.05;87.01;97189.47;5054519;28;20553;-72
2022/04/05 08:11:04;;;;;;;11.53;10.07;;;5.60;91.40;;;4.09;87.02;97177.34;5044706;28;20469;-70
2022/04/05 08:13:31;;;;;;;9.77;8.90;;;5.50;91.70;;;4.27;86.32;97181.38;5045665;28;20468;-73
2022/04/05 08:15:58;;;;;;;9.80;8.80;;;5.60;91.00;;;4.32;85.06;97176.25;5042434;28;20518;-72
2022/04/05 08:18:27;;;;;;;14.07;8.27;;;5.70;90.50;;;4.24;85.02;97180.75;5049718;28;20532;-72
2022/04/05 08:20:54;;;;;;;8.97;8.00;;;5.70;89.80;;;4.23;85.11;97187.13;5044083;28;20805;-71
2022/04/05 08:23:21;;;;;;;9.57;8.57;;;5.70;90.20;;;4.27;85.57;97189.41;5043986;28;20542;-71
2022/04/05 08:25:48;;;;;;;9.00;7.80;;;5.70;90.60;;;4.39;85.03;97193.19;5040740;28;20457;-72
2022/04/05 08:28:16;;;;;;;9.43;8.53;;;5.80;90.00;;;4.32;85.19;97187.81;5046572;28;20484;-70
2022/04/05 08:30:43;;;;;;;8.87;7.97;;;5.80;89.80;;;4.49;85.40;97191.00;5047924;28;20506;-71
2022/04/05 08:33:10;;;;;;;8.80;7.90;;;5.90;90.20;;;4.45;85.45;97192.41;5053494;28;20462;-71
2022/04/05 08:35:39;;;;;;;8.47;7.70;;;5.90;90.00;;;4.58;84.23;97193.50;5038135;28;20455;-72
2022/04/05 08:38:07;;;;;;;9.60;7.80;;;6.00;89.70;;;4.58;85.63;97209.56;5042140;28;20502;-72
2022/04/05 08:40:34;;;;;;;8.53;7.63;;;6.00;90.30;;;4.60;83.92;97197.66;5056777;28;20463;-74
2022/04/05 08:43:01;;;;;;;7.73;6.90;;;6.00;88.70;;;4.58;84.00;97210.41;5058294;28;20502;-73
2022/04/05 08:45:29;;;;;;;7.67;6.90;;;6.00;89.20;;;4.58;84.28;97202.38;5038723;28;20461;-74
2022/04/05 08:47:58;;;;;;;8.03;7.20;;;6.00;88.80;;;4.68;84.19;97205.50;5042516;28;20568;-71
2022/04/05 08:50:29;;;;;;;7.67;6.87;;;6.00;88.80;;;4.64;84.31;97200.75;5041332;28;21194;-73
2022/04/05 08:52:59;;;;;;;7.87;7.00;;;6.10;88.10;;;4.54;84.61;97218.00;5041381;28;20482;-72
2022/04/05 08:55:28;;;;;;;7.20;6.50;;;6.00;88.70;;;4.62;84.48;97218.84;5040759;28;22216;-72
2022/04/05 08:57:56;;;;;;;7.70;6.97;;;6.00;88.80;;;4.80;83.79;97211.13;5040469;28;20466;-74
2022/04/05 09:00:25;;;;;;;7.60;6.83;;;6.20;88.40;;;4.85;82.70;97213.19;5041926;28;21189;-72
2022/04/05 09:02:56;;;;;;;8.20;7.40;;;6.20;87.30;;;4.85;82.97;97223.09;5043634;28;20470;-72
2022/04/05 09:05:29;;;;;;;7.00;6.17;;;6.30;87.10;;;4.98;82.47;97225.84;5041795;28;20961;-72
2022/04/05 09:08:13;;;;;;;6.63;6.03;;;6.30;86.90;;;4.94;83.05;97225.41;5036566;28;21001;-72
2022/04/05 09:10:41;;;;;;;9.97;6.20;;;6.30;87.30;;;5.01;82.96;97225.44;5042135;28;20890;-72
2022/04/05 09:13:11;;;;;;;6.50;5.90;;;6.40;87.50;;;5.20;81.83;97225.72;5054379;28;20487;-72
2022/04/05 09:15:41;;;;;;;7.37;6.67;;;6.50;86.50;;;4.93;83.12;97225.63;5047009;28;20467;-72
2022/04/05 09:18:08;;;;;;;6.90;6.20;;;6.40;87.20;;;5.05;83.42;97215.97;5046032;28;20905;-72
2022/04/05 09:20:47;;;;;;;7.20;6.50;;;6.40;87.20;;;5.07;82.07;97221.94;5049471;28;21024;-72
2022/04/05 09:23:27;;;;;;;6.83;6.13;;;6.50;86.50;;;4.95;83.04;97218.22;5034838;28;20531;-72
2022/04/05 09:25:58;;;;;;;6.50;5.90;;;6.50;86.80;;;4.94;83.00;97227.28;5041694;28;20574;-70
2022/04/05 09:28:31;;;;;;;5.50;5.03;;;6.40;86.70;;;5.07;83.39;97221.13;5043762;28;21002;-76
2022/04/05 09:31:00;;;;;;;6.60;6.00;;;6.40;87.50;;;5.09;83.06;97213.72;5038887;28;20527;-75
2022/04/05 09:33:30;;;;;;;6.53;5.70;;;6.50;87.00;;;5.17;83.21;97212.72;5041839;28;20606;-76
2022/04/05 09:36:10;;;;;;;6.00;5.23;;;6.60;87.10;;;5.13;83.06;97224.88;5039415;28;20468;-75
2022/04/05 09:38:41;;;;;;;6.60;5.77;;;6.50;87.40;;;5.31;83.52;97216.28;5039474;28;20463;-71
2022/04/05 09:41:19;;;;;;;6.70;6.00;;;6.60;88.30;;;5.24;82.58;97218.94;5040813;28;20457;-74
2022/04/05 09:44:02;;;;;;;6.30;5.70;;;6.70;87.00;;;5.28;82.88;97224.69;5039953;28;20544;-73
2022/04/05 09:46:30;;;;;;;6.57;5.90;;;6.60;87.00;;;5.20;83.09;97223.03;5034348;28;20460;-78
2022/04/05 09:49:12;;;;;;;6.30;5.80;;;6.60;87.10;;;5.22;83.39;97229.84;5048590;28;21244;-77
2022/04/05 09:51:43;;;;;;;7.47;6.77;;;6.70;87.60;;;5.23;83.83;97225.31;5048250;28;20502;-77
2022/04/05 09:54:27;;;;;;;7.23;6.53;;;6.60;87.80;;;5.38;84.09;97217.97;5051628;28;20935;-75
2022/04/05 09:57:07;;;;;;;7.23;6.50;;;6.70;88.50;;;5.30;83.38;97204.75;5039081;28;20449;-77
2022/04/05 09:59:42;;;;;;;6.00;5.50;;;6.80;87.50;;;5.42;82.11;97231.75;5047011;28;20566;-78
2022/04/05 10:02:13;;;;;;;6.40;5.90;;;6.80;86.30;;;5.02;83.83;97162.81;5059027;28;20457;-75
2022/04/05 10:05:00;;;;;;;7.03;6.43;;;6.80;88.00;;;5.38;83.75;97228.69;5046249;28;20544;-76
2022/04/05 10:07:29;;;;;;;5.87;5.37;;;6.80;87.60;;;5.44;83.00;97234.25;5043877;28;20483;-77
2022/04/05 10:09:59;;;;;;;7.43;6.73;;;6.80;87.50;;;5.51;83.47;97232.41;5038966;28;20963;-75
2022/04/05 10:12:27;;;;;;;6.80;5.60;;;6.80;87.90;;;5.37;83.85;97232.34;5043066;28;20778;-77
2022/04/05 10:14:56;;;;;;;7.33;6.63;;;6.80;87.80;;;5.23;83.87;97230.66;5046141;28;21063;-77
2022/04/05 10:17:27;;;;;;;7.60;6.90;;;6.70;88.70;;;5.47;83.91;97225.81;5044577;28;20549;-76
2022/04/05 10:19:56;;;;;;;6.90;6.20;;;6.80;89.40;;;5.65;82.57;97226.03;5050022;28;20460;-72
2022/04/05 10:22:24;;;;;;;6.90;6.23;;;6.90;87.80;;;5.70;83.46;97221.94;5044515;28;20462;-76
2022/04/05 10:24:53;;;;;;;7.10;6.40;;;7.00;87.80;;;5.73;82.09;97226.91;5047577;28;20463;-76
2022/04/05 10:27:22;;;;;;;6.47;5.87;;;7.00;86.80;;;5.68;82.27;97208.75;5050824;28;20465;-78
2022/04/05 10:29:57;;;;;;;7.33;6.50;;;7.10;87.00;;;5.81;82.29;97232.03;5040751;28;20457;-76
2022/04/05 10:32:33;;;;;;;6.80;6.10;;;7.10;86.10;;;5.61;82.51;97222.13;5044248;28;20480;-76